Time;durP1;ratioP1;P1;durP2;ratioP2;P2;SDS_P1;SDS_P2;PMS_P1;PMS_P2;Temp;Humidity;BMP_temperature;BMP_pressure;BME280_temperature;BME280_humidity;BME280_pressure;Samples;Min_cycle;Max_cycle;Signal;HPM_P1;HPM_P2
2023/10/24 00:00:29;;;;;;;21.48;13.02;;;10.30;99.90;;;;;;6179427;23;20099;-74
2023/10/24 00:02:55;;;;;;;22.25;13.82;;;10.30;99.90;;;;;;6180737;23;20017;-74
2023/10/24 00:05:20;;;;;;;20.17;13.98;;;10.30;99.90;;;;;;6180286;23;20021;-74
2023/10/24 00:07:46;;;;;;;18.10;13.18;;;10.30;99.90;;;;;;6180061;23;20349;-75
2023/10/24 00:10:13;;;;;;;25.27;14.15;;;10.30;99.90;;;;;;6179397;23;20013;-75
2023/10/24 00:12:38;;;;;;;20.45;13.55;;;10.30;99.90;;;;;;6181349;23;20395;-74
2023/10/24 00:15:05;;;;;;;22.30;13.40;;;10.20;99.90;;;;;;6154403;23;20444;-74
2023/10/24 00:17:30;;;;;;;18.05;12.95;;;10.20;99.90;;;;;;6176469;23;20063;-74
2023/10/24 00:19:56;;;;;;;25.60;13.90;;;10.30;99.90;;;;;;6179468;23;20453;-74
2023/10/24 00:22:21;;;;;;;21.50;13.95;;;10.30;99.90;;;;;;6179626;23;20126;-75
2023/10/24 00:24:47;;;;;;;20.75;12.88;;;10.30;99.90;;;;;;6180016;23;20021;-76
2023/10/24 00:27:13;;;;;;;21.05;14.10;;;10.30;99.90;;;;;;6180198;23;20048;-75
2023/10/24 00:29:38;;;;;;;20.98;13.65;;;10.30;99.90;;;;;;6177968;23;20037;-75
2023/10/24 00:32:04;;;;;;;19.80;13.35;;;10.30;99.90;;;;;;6180041;23;20463;-75
2023/10/24 00:34:30;;;;;;;23.83;14.15;;;10.30;99.90;;;;;;6153924;23;20452;-75
2023/10/24 00:36:56;;;;;;;22.58;14.52;;;10.30;99.90;;;;;;6179532;23;20024;-75
2023/10/24 00:39:22;;;;;;;19.50;13.98;;;10.30;99.90;;;;;;6179654;23;20021;-75
2023/10/24 00:41:48;;;;;;;21.45;14.48;;;10.30;99.90;;;;;;6179662;23;20071;-76
2023/10/24 00:44:14;;;;;;;24.25;13.73;;;10.30;99.90;;;;;;6178262;23;20020;-75
2023/10/24 00:46:41;;;;;;;21.17;14.63;;;10.30;99.90;;;;;;6180039;23;20059;-76
2023/10/24 00:49:08;;;;;;;24.45;14.77;;;10.20;99.90;;;;;;6180214;23;20075;-76
2023/10/24 00:51:34;;;;;;;27.25;15.15;;;10.20;99.90;;;;;;6180611;23;20031;-73
2023/10/24 00:54:01;;;;;;;24.02;15.77;;;10.20;99.90;;;;;;6154703;23;20365;-73
2023/10/24 00:56:30;;;;;;;29.10;15.48;;;10.20;99.90;;;;;;6129958;23;20068;-75
2023/10/24 00:58:56;;;;;;;28.08;16.05;;;10.20;99.90;;;;;;6153543;23;20017;-74
2023/10/24 01:01:23;;;;;;;28.02;15.38;;;10.20;99.90;;;;;;6154301;23;20024;-74
2023/10/24 01:03:49;;;;;;;29.73;15.75;;;10.10;99.90;;;;;;6153973;23;20033;-75
2023/10/24 01:06:18;;;;;;;25.00;14.30;;;10.10;99.90;;;;;;6180345;23;20013;-75
2023/10/24 01:08:44;;;;;;;23.40;14.07;;;10.10;99.90;;;;;;6180026;23;20020;-75
2023/10/24 01:11:11;;;;;;;27.55;16.05;;;10.10;99.90;;;;;;6154818;23;20017;-76
2023/10/24 01:13:37;;;;;;;28.17;16.65;;;10.10;99.90;;;;;;6179595;23;20512;-75
2023/10/24 01:16:03;;;;;;;27.23;16.98;;;10.10;99.90;;;;;;6151925;23;20108;-76
2023/10/24 01:18:28;;;;;;;28.42;16.38;;;10.10;99.90;;;;;;6180668;23;20021;-75
2023/10/24 01:20:54;;;;;;;29.50;17.25;;;10.10;99.90;;;;;;6154198;23;20106;-75
2023/10/24 01:23:21;;;;;;;27.27;15.70;;;10.10;99.90;;;;;;6181576;23;20024;-74
2023/10/24 01:25:50;;;;;;;30.65;18.00;;;10.00;99.90;;;;;;6179962;23;20009;-75
2023/10/24 01:28:17;;;;;;;31.20;17.65;;;10.00;99.90;;;;;;6180277;23;20417;-75
2023/10/24 01:30:43;;;;;;;30.80;18.10;;;10.10;99.90;;;;;;6129841;23;20348;-74
2023/10/24 01:33:09;;;;;;;32.05;18.58;;;10.00;99.90;;;;;;6154381;23;20099;-74
2023/10/24 01:35:34;;;;;;;32.15;17.92;;;10.00;99.90;;;;;;6180746;23;20080;-74
2023/10/24 01:38:00;;;;;;;32.17;17.27;;;10.10;99.90;;;;;;6129909;23;20017;-74
2023/10/24 01:40:26;;;;;;;31.15;18.35;;;10.00;99.90;;;;;;6129190;23;20449;-75
2023/10/24 01:42:51;;;;;;;32.92;18.45;;;10.00;99.90;;;;;;6153867;23;20032;-76
2023/10/24 01:45:17;;;;;;;34.42;19.17;;;10.10;99.90;;;;;;6129232;23;20020;-76
2023/10/24 01:47:43;;;;;;;35.38;19.25;;;10.00;99.90;;;;;;6154023;23;20352;-75
2023/10/24 01:50:09;;;;;;;37.28;20.13;;;10.00;99.90;;;;;;6179046;23;20072;-75
2023/10/24 01:52:35;;;;;;;37.08;18.80;;;10.00;99.90;;;;;;6179194;23;20333;-75
2023/10/24 01:55:01;;;;;;;32.92;19.13;;;10.00;99.90;;;;;;6178164;23;20021;-75
2023/10/24 01:57:27;;;;;;;36.25;18.80;;;10.00;99.90;;;;;;6181298;23;20009;-74
2023/10/24 01:59:52;;;;;;;34.25;19.17;;;10.00;99.90;;;;;;6177807;23;20025;-74
2023/10/24 02:02:18;;;;;;;29.80;18.45;;;10.00;99.90;;;;;;6179885;23;20055;-74
2023/10/24 02:04:44;;;;;;;36.05;19.88;;;10.00;99.90;;;;;;6178633;23;20141;-74
2023/10/24 02:07:09;;;;;;;32.65;18.75;;;10.00;99.90;;;;;;6178975;23;20017;-73
2023/10/24 02:09:35;;;;;;;35.75;18.38;;;10.00;99.90;;;;;;6180301;23;20021;-75
2023/10/24 02:12:01;;;;;;;34.33;18.42;;;10.00;99.90;;;;;;6178910;23;20020;-75
2023/10/24 02:14:31;;;;;;;34.28;19.45;;;10.00;99.90;;;;;;6179952;23;20608;-75
2023/10/24 02:16:57;;;;;;;35.42;19.25;;;10.00;99.90;;;;;;6177372;23;20111;-75
2023/10/24 02:19:24;;;;;;;32.30;18.17;;;10.00;99.90;;;;;;6178625;23;20505;-75
2023/10/24 02:21:50;;;;;;;31.40;18.90;;;10.00;99.90;;;;;;6181016;23;20009;-74
2023/10/24 02:24:15;;;;;;;32.85;19.05;;;10.00;99.90;;;;;;6179930;23;20348;-74
2023/10/24 02:26:41;;;;;;;32.88;19.33;;;10.00;99.90;;;;;;6180861;23;20052;-74
2023/10/24 02:29:06;;;;;;;32.05;18.98;;;10.00;99.90;;;;;;6177228;23;20021;-74
2023/10/24 02:31:32;;;;;;;32.20;19.52;;;10.00;99.90;;;;;;6181008;23;20322;-75
2023/10/24 02:33:58;;;;;;;34.80;19.65;;;10.00;99.90;;;;;;6180366;23;20095;-75
2023/10/24 02:36:23;;;;;;;38.22;19.25;;;10.00;99.90;;;;;;6179904;23;20009;-75
2023/10/24 02:38:49;;;;;;;35.25;18.90;;;10.00;99.90;;;;;;6179207;23;20013;-75
2023/10/24 02:41:15;;;;;;;30.65;18.33;;;10.00;99.90;;;;;;6178365;23;20025;-74
2023/10/24 02:43:40;;;;;;;35.22;19.02;;;10.00;99.90;;;;;;6179025;23;20063;-75
2023/10/24 02:46:06;;;;;;;33.25;19.02;;;10.00;99.90;;;;;;6181023;23;20460;-74
2023/10/24 02:48:32;;;;;;;37.55;19.83;;;10.00;99.90;;;;;;6178515;23;20047;-75
2023/10/24 02:50:58;;;;;;;33.30;18.40;;;10.00;99.90;;;;;;6177405;23;20021;-74
2023/10/24 02:53:39;;;;;;;30.92;18.17;;;10.00;99.90;;;;;;6140494;23;20021;-74
2023/10/24 02:56:05;;;;;;;27.88;17.02;;;10.00;99.90;;;;;;6178588;23;20039;-74
2023/10/24 02:58:31;;;;;;;32.40;18.73;;;10.10;99.90;;;;;;6178928;23;20092;-76
2023/10/24 03:01:05;;;;;;;32.53;18.52;;;10.10;99.90;;;;;;6180419;23;20013;-73
2023/10/24 03:03:32;;;;;;;31.70;18.45;;;10.10;99.90;;;;;;6153003;23;20025;-75
2023/10/24 03:05:57;;;;;;;32.22;18.33;;;10.10;99.90;;;;;;6177725;23;20068;-74
2023/10/24 03:08:23;;;;;;;31.20;18.00;;;10.10;99.90;;;;;;6179902;23;20024;-75
2023/10/24 03:10:49;;;;;;;30.73;17.10;;;10.10;99.90;;;;;;6178974;23;20045;-75
2023/10/24 03:13:14;;;;;;;27.65;16.83;;;10.10;99.90;;;;;;6177483;23;20025;-75
2023/10/24 03:15:41;;;;;;;27.33;15.77;;;10.10;99.90;;;;;;6179992;23;20021;-75
2023/10/24 03:18:07;;;;;;;28.73;15.55;;;10.20;99.90;;;;;;6180222;23;20017;-75
2023/10/24 03:20:32;;;;;;;27.73;15.48;;;10.20;99.90;;;;;;6180079;23;20049;-75
2023/10/24 03:22:58;;;;;;;25.98;15.77;;;10.20;99.90;;;;;;6180538;23;20083;-75
2023/10/24 03:25:24;;;;;;;25.55;14.73;;;10.20;99.90;;;;;;6179728;23;20028;-75
2023/10/24 03:27:54;;;;;;;23.35;14.13;;;10.20;99.90;;;;;;6180443;23;20017;-74
2023/10/24 03:30:20;;;;;;;27.10;15.25;;;10.20;99.90;;;;;;6179686;23;20341;-75
2023/10/24 03:32:46;;;;;;;24.17;14.68;;;10.30;99.90;;;;;;6179833;23;20021;-75
2023/10/24 03:35:14;;;;;;;21.25;13.43;;;10.20;99.90;;;;;;6180368;23;20084;-75
2023/10/24 03:37:40;;;;;;;26.67;14.90;;;10.30;99.90;;;;;;6155660;23;20032;-75
2023/10/24 03:40:07;;;;;;;25.67;15.02;;;10.30;99.90;;;;;;6181680;23;20009;-75
2023/10/24 03:42:33;;;;;;;26.35;14.45;;;10.30;99.90;;;;;;6155264;23;20031;-75
2023/10/24 03:44:58;;;;;;;24.40;13.88;;;10.30;99.90;;;;;;6179390;23;20029;-75
2023/10/24 03:47:24;;;;;;;21.02;14.10;;;10.30;99.90;;;;;;6179591;23;20388;-75
2023/10/24 03:49:50;;;;;;;23.73;14.48;;;10.30;99.90;;;;;;6155591;23;20821;-74
2023/10/24 03:52:15;;;;;;;24.08;14.52;;;10.30;99.90;;;;;;6155211;23;20083;-75
2023/10/24 03:54:41;;;;;;;27.23;14.07;;;10.40;99.90;;;;;;6130443;23;20027;-74
2023/10/24 03:57:07;;;;;;;26.38;15.57;;;10.40;99.90;;;;;;6131173;23;20088;-75
2023/10/24 03:59:32;;;;;;;23.75;14.82;;;10.40;99.90;;;;;;6154630;23;20013;-74
2023/10/24 04:01:58;;;;;;;25.73;15.98;;;10.40;99.90;;;;;;6181666;23;20021;-74
2023/10/24 04:04:24;;;;;;;25.50;15.35;;;10.40;99.90;;;;;;6181472;23;20036;-74
2023/10/24 04:06:49;;;;;;;27.77;17.15;;;10.50;99.90;;;;;;6155530;23;20519;-75
2023/10/24 04:09:15;;;;;;;29.95;17.00;;;10.50;99.90;;;;;;6154401;23;20096;-74
2023/10/24 04:11:40;;;;;;;28.42;15.88;;;10.50;99.90;;;;;;6155757;23;20020;-74
2023/10/24 04:14:07;;;;;;;28.42;16.60;;;10.50;99.90;;;;;;6154028;23;20083;-75
2023/10/24 04:16:32;;;;;;;32.78;17.60;;;10.50;99.90;;;;;;6151699;23;20407;-75
2023/10/24 04:18:59;;;;;;;30.98;17.50;;;10.60;99.90;;;;;;6155068;23;20455;-75
2023/10/24 04:21:24;;;;;;;34.08;18.27;;;10.60;99.90;;;;;;6181257;23;20048;-74
2023/10/24 04:23:51;;;;;;;33.35;17.98;;;10.60;99.90;;;;;;6154843;23;20044;-74
2023/10/24 04:26:17;;;;;;;31.63;18.08;;;10.60;99.90;;;;;;6154882;23;20447;-75
2023/10/24 04:28:42;;;;;;;34.08;18.52;;;10.60;99.90;;;;;;6182094;23;20013;-75
2023/10/24 04:31:08;;;;;;;35.92;18.75;;;10.60;99.90;;;;;;6156084;23;20075;-75
2023/10/24 04:33:34;;;;;;;40.95;20.05;;;10.70;99.90;;;;;;6154124;23;20028;-74
2023/10/24 04:35:59;;;;;;;34.28;20.20;;;10.70;99.90;;;;;;6154527;23;20032;-75
2023/10/24 04:38:25;;;;;;;42.45;21.80;;;10.70;99.90;;;;;;6155295;23;20429;-75
2023/10/24 04:40:51;;;;;;;38.08;19.27;;;10.80;99.90;;;;;;6156185;23;20484;-75
2023/10/24 04:43:18;;;;;;;44.03;21.63;;;10.80;99.90;;;;;;6153358;23;20025;-75
2023/10/24 04:45:44;;;;;;;48.67;23.20;;;10.80;99.90;;;;;;6181261;23;20461;-74
2023/10/24 04:48:10;;;;;;;48.92;23.67;;;10.80;99.90;;;;;;6180650;23;20016;-74
2023/10/24 04:50:38;;;;;;;57.97;25.25;;;10.80;99.90;;;;;;6154758;23;20031;-74
2023/10/24 04:53:05;;;;;;;46.47;23.90;;;10.90;99.90;;;;;;6155000;23;20088;-74
2023/10/24 04:55:31;;;;;;;49.10;24.13;;;10.90;99.90;;;;;;6130033;23;20021;-74
2023/10/24 04:57:57;;;;;;;46.05;23.50;;;10.80;99.90;;;;;;6153765;23;20532;-74
2023/10/24 05:00:24;;;;;;;47.88;24.45;;;10.90;99.90;;;;;;6130111;23;20021;-75
2023/10/24 05:02:50;;;;;;;55.63;25.83;;;10.90;99.90;;;;;;6154203;23;20034;-74
2023/10/24 05:05:16;;;;;;;55.83;26.67;;;10.90;99.90;;;;;;6154325;23;20082;-74
2023/10/24 05:07:42;;;;;;;52.10;26.83;;;10.90;99.90;;;;;;6130026;23;20108;-75
2023/10/24 05:10:08;;;;;;;52.47;27.27;;;11.00;99.90;;;;;;6155061;23;20457;-74
2023/10/24 05:12:34;;;;;;;61.17;29.25;;;11.00;99.90;;;;;;6180343;23;20486;-74
2023/10/24 05:14:59;;;;;;;61.53;29.85;;;11.00;99.90;;;;;;6180643;23;20009;-75
2023/10/24 05:17:25;;;;;;;57.15;29.48;;;11.10;99.90;;;;;;6178094;23;20025;-75
2023/10/24 05:19:50;;;;;;;58.53;30.20;;;11.10;99.90;;;;;;6180395;23;20083;-75
2023/10/24 05:22:16;;;;;;;68.38;32.78;;;11.10;99.90;;;;;;6130201;23;20021;-75
2023/10/24 05:24:42;;;;;;;63.47;32.50;;;11.10;99.90;;;;;;6154822;23;20349;-74
2023/10/24 05:27:08;;;;;;;65.00;32.10;;;11.10;99.90;;;;;;6154479;23;20017;-76
2023/10/24 05:29:34;;;;;;;66.97;33.92;;;11.20;99.90;;;;;;6129274;23;20080;-75
2023/10/24 05:32:00;;;;;;;62.53;31.42;;;11.20;99.90;;;;;;6129882;23;20028;-75
2023/10/24 05:34:29;;;;;;;50.83;29.42;;;11.10;99.90;;;;;;6154032;23;20017;-75
2023/10/24 05:36:55;;;;;;;52.90;29.60;;;11.20;99.90;;;;;;6129926;23;20013;-76
2023/10/24 05:39:24;;;;;;;46.72;27.50;;;11.20;99.90;;;;;;6154104;23;20020;-76
2023/10/24 05:41:50;;;;;;;50.50;28.23;;;11.20;99.90;;;;;;6129364;23;20028;-74
2023/10/24 05:44:16;;;;;;;53.25;28.77;;;11.20;99.90;;;;;;6153401;23;20054;-75
2023/10/24 05:46:41;;;;;;;45.35;27.15;;;11.20;99.90;;;;;;6180380;23;20082;-73
2023/10/24 05:49:07;;;;;;;49.47;26.88;;;11.20;99.90;;;;;;6172356;23;20017;-75
2023/10/24 05:51:33;;;;;;;40.55;25.83;;;11.20;99.90;;;;;;6154656;23;20025;-75
2023/10/24 05:53:59;;;;;;;47.22;27.08;;;11.20;99.90;;;;;;6178742;23;20590;-76
2023/10/24 05:56:26;;;;;;;46.70;27.17;;;11.20;99.90;;;;;;6179655;23;20021;-75
2023/10/24 05:58:51;;;;;;;46.97;27.20;;;11.30;99.90;;;;;;6178940;23;20472;-76
2023/10/24 06:01:17;;;;;;;52.22;27.42;;;11.20;99.90;;;;;;6180365;23;20028;-76
2023/10/24 06:03:43;;;;;;;50.75;27.35;;;11.20;99.90;;;;;;6154001;23;20031;-76
2023/10/24 06:06:09;;;;;;;38.33;24.30;;;11.20;99.90;;;;;;6179824;23;20070;-76
2023/10/24 06:08:35;;;;;;;47.95;27.27;;;11.20;99.90;;;;;;6180410;23;20469;-79
2023/10/24 06:11:02;;;;;;;53.45;26.67;;;11.20;99.90;;;;;;6179608;23;20025;-76
2023/10/24 06:13:29;;;;;;;51.90;27.77;;;11.20;99.90;;;;;;6177320;23;20013;-75
2023/10/24 06:15:55;;;;;;;44.22;26.38;;;11.20;99.90;;;;;;6150578;23;20024;-76
2023/10/24 06:18:21;;;;;;;42.88;25.70;;;11.20;99.90;;;;;;6180455;23;20023;-76
2023/10/24 06:20:47;;;;;;;41.38;25.05;;;11.20;99.90;;;;;;6179041;23;20330;-76
2023/10/24 06:23:13;;;;;;;42.47;25.73;;;11.20;99.90;;;;;;6178272;23;20028;-77
2023/10/24 06:25:42;;;;;;;53.22;27.30;;;11.20;99.90;;;;;;6178753;23;20025;-77
2023/10/24 06:28:08;;;;;;;37.50;24.00;;;11.20;99.90;;;;;;6181269;23;20021;-79
2023/10/24 06:30:35;;;;;;;39.92;24.40;;;11.20;99.90;;;;;;6182145;23;20056;-76
2023/10/24 06:33:02;;;;;;;42.25;23.67;;;11.20;99.90;;;;;;6177610;23;20025;-77
2023/10/24 06:35:28;;;;;;;49.15;26.10;;;11.20;99.90;;;;;;6177384;23;20098;-76
2023/10/24 06:37:53;;;;;;;39.58;23.58;;;11.20;99.90;;;;;;6177404;23;20021;-77
2023/10/24 06:40:19;;;;;;;37.83;24.42;;;11.20;99.90;;;;;;6180782;23;20021;-77
2023/10/24 06:42:45;;;;;;;41.03;24.15;;;11.20;99.90;;;;;;6179930;23;20488;-76
2023/10/24 06:45:11;;;;;;;37.15;21.63;;;11.20;99.90;;;;;;6177911;23;20060;-77
2023/10/24 06:47:37;;;;;;;34.17;21.50;;;11.20;99.90;;;;;;6179700;23;20372;-77
2023/10/24 06:50:04;;;;;;;38.70;20.50;;;11.20;99.90;;;;;;6153287;23;20079;-78
2023/10/24 06:52:30;;;;;;;38.30;21.20;;;11.20;99.90;;;;;;6129481;23;20013;-77
2023/10/24 06:54:57;;;;;;;41.38;22.17;;;11.20;99.90;;;;;;6130928;23;20017;-77
2023/10/24 06:57:23;;;;;;;45.00;22.77;;;11.20;99.90;;;;;;6155545;23;20040;-77
2023/10/24 06:59:49;;;;;;;42.83;22.35;;;11.20;99.90;;;;;;6154846;23;20056;-77
2023/10/24 07:02:14;;;;;;;35.28;20.00;;;11.20;99.90;;;;;;6154826;23;20400;-77
2023/10/24 07:04:40;;;;;;;30.77;18.65;;;11.20;99.90;;;;;;6155037;23;20044;-76
2023/10/24 07:07:06;;;;;;;34.13;18.52;;;11.20;99.90;;;;;;6130938;23;20013;-76
2023/10/24 07:09:32;;;;;;;34.90;18.25;;;11.20;99.90;;;;;;6155110;23;20016;-76
2023/10/24 07:11:58;;;;;;;30.77;16.25;;;11.20;99.90;;;;;;6154887;23;20009;-77
2023/10/24 07:14:24;;;;;;;30.13;16.25;;;11.10;99.90;;;;;;6153370;23;20017;-76
2023/10/24 07:16:51;;;;;;;30.48;16.77;;;11.10;99.90;;;;;;6152093;23;20159;-76
2023/10/24 07:19:17;;;;;;;30.58;16.48;;;11.10;99.90;;;;;;6130313;23;20028;-77
2023/10/24 07:21:43;;;;;;;25.75;15.45;;;11.10;99.90;;;;;;6155551;23;20036;-76
2023/10/24 07:24:09;;;;;;;30.15;15.43;;;11.10;99.90;;;;;;6155375;23;20021;-76
2023/10/24 07:26:34;;;;;;;25.42;14.48;;;11.10;99.90;;;;;;6155307;23;20024;-76
2023/10/24 07:29:00;;;;;;;26.83;14.48;;;11.10;99.90;;;;;;6130003;23;20052;-76
2023/10/24 07:31:26;;;;;;;27.23;15.23;;;11.10;99.90;;;;;;6130551;23;20071;-76
2023/10/24 07:33:51;;;;;;;25.02;14.18;;;11.10;99.90;;;;;;6153016;23;20613;-76
2023/10/24 07:36:17;;;;;;;28.73;14.82;;;11.00;99.90;;;;;;6155754;23;20088;-76
2023/10/24 07:38:43;;;;;;;30.85;16.00;;;11.10;99.90;;;;;;6181162;23;20076;-78
2023/10/24 07:41:09;;;;;;;26.38;15.40;;;11.10;99.90;;;;;;6181410;23;20025;-78
2023/10/24 07:43:35;;;;;;;29.55;15.77;;;11.10;99.90;;;;;;6180629;23;20036;-77
2023/10/24 07:46:01;;;;;;;34.50;17.73;;;11.10;99.90;;;;;;6181386;23;20017;-76
2023/10/24 07:48:26;;;;;;;35.88;17.55;;;11.00;99.90;;;;;;6181239;23;20385;-76
2023/10/24 07:50:54;;;;;;;36.17;18.00;;;11.10;99.90;;;;;;6181322;23;20155;-78
2023/10/24 07:53:21;;;;;;;38.53;17.50;;;11.10;99.90;;;;;;6180563;23;20053;-79
2023/10/24 07:55:47;;;;;;;26.70;16.15;;;11.00;99.90;;;;;;6182477;23;20463;-79
2023/10/24 07:58:13;;;;;;;33.55;17.00;;;11.00;99.90;;;;;;6155032;23;20013;-78
2023/10/24 08:00:39;;;;;;;31.98;16.98;;;11.00;99.90;;;;;;6180673;23;20035;-78
2023/10/24 08:03:04;;;;;;;28.58;16.40;;;11.00;99.90;;;;;;6154613;23;20021;-76
2023/10/24 08:05:30;;;;;;;35.50;17.15;;;11.00;99.90;;;;;;6178426;23;20028;-75
2023/10/24 08:07:56;;;;;;;35.17;18.10;;;11.00;99.90;;;;;;6154234;23;20013;-77
2023/10/24 08:10:21;;;;;;;36.70;19.52;;;11.00;99.90;;;;;;6130362;23;20017;-78
2023/10/24 08:12:47;;;;;;;36.45;19.13;;;11.00;99.90;;;;;;6154970;23;20112;-77
2023/10/24 08:15:12;;;;;;;40.75;19.55;;;11.00;99.90;;;;;;6129231;23;20031;-77
2023/10/24 08:17:38;;;;;;;40.05;20.20;;;11.10;99.90;;;;;;6178336;23;20092;-77
2023/10/24 08:20:04;;;;;;;44.10;20.02;;;11.00;99.90;;;;;;6155632;23;20052;-76
2023/10/24 08:22:31;;;;;;;35.38;19.17;;;11.00;99.90;;;;;;6155491;23;20385;-77
2023/10/24 08:24:58;;;;;;;40.47;20.67;;;11.10;99.90;;;;;;6156616;23;20536;-78
2023/10/24 08:27:24;;;;;;;42.55;21.65;;;11.10;99.90;;;;;;6132101;23;20017;-77
2023/10/24 08:29:49;;;;;;;43.30;22.77;;;11.10;99.90;;;;;;6153620;23;20029;-77
2023/10/24 08:32:15;;;;;;;47.83;23.90;;;11.10;99.90;;;;;;6181704;23;20476;-76
2023/10/24 08:34:41;;;;;;;43.53;23.15;;;11.10;99.90;;;;;;6130148;23;20021;-76
2023/10/24 08:37:06;;;;;;;46.67;24.75;;;11.10;99.90;;;;;;6155828;23;20024;-81
2023/10/24 08:39:32;;;;;;;46.25;25.17;;;11.10;99.90;;;;;;6154134;23;20048;-78
2023/10/24 08:41:58;;;;;;;49.42;26.10;;;11.10;99.90;;;;;;6153572;23;20168;-78
2023/10/24 08:44:24;;;;;;;44.53;25.45;;;11.10;99.90;;;;;;6128887;23;20017;-77
2023/10/24 08:46:50;;;;;;;51.17;26.40;;;11.10;99.90;;;;;;6129760;23;20021;-77
2023/10/24 08:49:19;;;;;;;45.30;26.70;;;11.10;99.90;;;;;;6171144;23;20058;-77
2023/10/24 08:51:45;;;;;;;56.65;27.83;;;11.20;99.90;;;;;;6155505;23;20017;-76
2023/10/24 08:54:11;;;;;;;42.63;25.23;;;11.20;99.90;;;;;;6179775;23;20024;-75
2023/10/24 08:56:38;;;;;;;44.88;25.42;;;11.20;99.90;;;;;;6154662;23;20025;-76
2023/10/24 08:59:09;;;;;;;41.47;23.90;;;11.20;99.90;;;;;;6180355;23;20047;-77
2023/10/24 09:01:40;;;;;;;34.70;23.52;;;11.30;99.90;;;;;;6181368;23;20048;-75
2023/10/24 09:04:06;;;;;;;36.00;23.48;;;11.20;99.90;;;;;;6178412;23;20012;-75
2023/10/24 09:06:33;;;;;;;40.30;24.08;;;11.30;99.90;;;;;;6182833;23;20025;-81
2023/10/24 09:08:59;;;;;;;38.40;22.98;;;11.30;99.90;;;;;;6184261;23;20020;-77
2023/10/24 09:11:25;;;;;;;33.20;22.15;;;11.30;99.90;;;;;;6181446;23;20024;-74
2023/10/24 09:13:52;;;;;;;36.03;22.98;;;11.30;99.90;;;;;;6180618;23;20035;-76
2023/10/24 09:16:18;;;;;;;36.60;23.38;;;11.30;99.90;;;;;;6178866;23;20128;-77
2023/10/24 09:18:44;;;;;;;32.55;21.75;;;11.30;99.90;;;;;;6178784;23;20389;-77
2023/10/24 09:21:09;;;;;;;36.30;22.58;;;11.30;99.90;;;;;;6179198;23;20021;-76
2023/10/24 09:23:36;;;;;;;34.78;22.65;;;11.30;99.90;;;;;;6180825;23;20017;-75
2023/10/24 09:26:06;;;;;;;36.35;23.33;;;11.30;99.90;;;;;;6178884;23;20084;-76
2023/10/24 09:28:33;;;;;;;33.85;22.33;;;11.30;99.90;;;;;;6179908;23;20025;-77
2023/10/24 09:31:00;;;;;;;36.85;23.13;;;11.40;99.90;;;;;;6178883;23;20055;-76
2023/10/24 09:33:29;;;;;;;35.55;23.70;;;11.40;99.90;;;;;;6180841;23;20495;-76
2023/10/24 09:35:56;;;;;;;38.70;23.90;;;11.40;99.90;;;;;;6179404;23;20016;-76
2023/10/24 09:38:24;;;;;;;35.63;23.92;;;11.40;99.90;;;;;;6178196;23;20483;-77
2023/10/24 09:40:50;;;;;;;38.22;24.35;;;11.50;99.90;;;;;;6179350;23;20048;-76
2023/10/24 09:43:22;;;;;;;40.47;25.33;;;11.50;99.90;;;;;;6177872;23;20021;-76
2023/10/24 09:45:51;;;;;;;31.70;21.05;;;11.50;99.90;;;;;;6176992;23;20017;-76
2023/10/24 09:48:17;;;;;;;36.92;23.73;;;11.50;99.90;;;;;;6179086;23;20448;-77
2023/10/24 09:50:43;;;;;;;36.38;24.75;;;11.50;99.90;;;;;;6175730;23;20064;-77
2023/10/24 09:53:11;;;;;;;36.10;23.42;;;11.50;99.90;;;;;;6177916;23;20472;-77
2023/10/24 09:55:48;;;;;;;37.38;24.30;;;11.50;99.90;;;;;;6177976;23;20017;-75
2023/10/24 09:58:17;;;;;;;35.40;23.05;;;11.50;99.90;;;;;;6178524;23;20033;-77
2023/10/24 10:00:43;;;;;;;36.75;23.70;;;11.50;99.90;;;;;;6177772;23;20587;-77
2023/10/24 10:03:10;;;;;;;37.42;22.80;;;11.50;99.90;;;;;;6177745;23;20325;-75
2023/10/24 10:05:38;;;;;;;33.05;22.77;;;11.50;99.90;;;;;;6178692;23;20040;-77
2023/10/24 10:08:07;;;;;;;32.28;22.92;;;11.50;99.90;;;;;;6153734;23;20456;-75
2023/10/24 10:10:36;;;;;;;35.17;23.00;;;11.50;99.90;;;;;;6153246;23;20021;-75
2023/10/24 10:13:06;;;;;;;35.67;23.27;;;11.50;99.90;;;;;;6176822;23;20048;-76
2023/10/24 10:16:06;;;;;;;35.65;22.88;;;11.50;99.90;;;;;;6178732;23;20444;-77
2023/10/24 10:19:00;;;;;;;40.00;24.08;;;11.50;99.90;;;;;;6153457;23;20021;-76
2023/10/24 10:21:38;;;;;;;39.33;24.60;;;11.50;99.90;;;;;;6125322;23;20295;-75
2023/10/24 10:24:42;;;;;;;40.42;24.67;;;11.60;99.90;;;;;;6180088;23;20044;-75
2023/10/24 10:27:40;;;;;;;43.38;25.17;;;11.70;99.90;;;;;;6151569;23;20013;-75
2023/10/24 10:30:36;;;;;;;39.20;25.23;;;11.70;99.90;;;;;;6152335;23;20036;-75
2023/10/24 10:33:13;;;;;;;40.92;24.63;;;11.80;99.90;;;;;;6153618;23;20700;-76
2023/10/24 10:35:53;;;;;;;40.50;25.10;;;11.80;99.90;;;;;;6152626;23;20017;-76
2023/10/24 10:38:40;;;;;;;35.40;22.52;;;11.70;99.90;;;;;;6177677;23;20531;-74
2023/10/24 10:41:25;;;;;;;34.60;22.85;;;11.70;99.90;;;;;;6179898;23;20103;-75
2023/10/24 10:43:59;;;;;;;40.20;23.98;;;11.70;99.90;;;;;;6176386;23;20013;-75
2023/10/24 10:46:26;;;;;;;43.08;25.42;;;11.70;99.90;;;;;;6129319;23;20345;-78
2023/10/24 10:49:03;;;;;;;34.08;23.55;;;11.60;99.90;;;;;;6177815;23;20013;-76
2023/10/24 10:51:36;;;;;;;38.47;24.00;;;11.70;99.90;;;;;;6152833;23;20527;-75
2023/10/24 10:54:21;;;;;;;;;;;11.60;99.90;;;;;;6153732;23;20116;-75
2023/10/24 10:56:47;;;;;;;;;;;11.60;99.90;;;;;;6153830;23;19990;-78
2023/10/24 10:59:20;;;;;;;;;;;11.70;99.90;;;;;;6176343;23;20346;-75
2023/10/24 11:02:01;;;;;;;;;;;11.60;99.90;;;;;;6178529;23;20386;-76
2023/10/24 11:04:27;;;;;;;;;;;11.60;99.90;;;;;;6152728;23;19926;-77
2023/10/24 11:06:54;;;;;;;;;;;11.70;99.90;;;;;;6177787;23;19920;-76
2023/10/24 11:09:20;;;;;;;;;;;11.70;99.90;;;;;;6180052;23;19959;-76
2023/10/24 11:11:46;;;;;;;;;;;11.70;99.90;;;;;;6152810;23;20324;-76
2023/10/24 11:14:13;;;;;;;;;;;11.70;99.90;;;;;;6176638;23;19969;-77
2023/10/24 11:16:40;;;;;;;;;;;11.70;99.90;;;;;;6176946;23;19924;-76
2023/10/24 11:19:06;;;;;;;;;;;11.70;99.90;;;;;;6180379;23;20376;-76
2023/10/24 11:21:31;;;;;;;;;;;11.80;99.90;;;;;;6178704;23;19916;-76
2023/10/24 11:24:00;;;;;;;;;;;11.80;99.90;;;;;;6177765;23;19916;-76
2023/10/24 11:26:26;;;;;;;;;;;11.80;99.90;;;;;;6178901;23;19920;-76
2023/10/24 11:28:51;;;;;;;;;;;11.80;99.90;;;;;;6178665;23;19926;-75
2023/10/24 11:31:18;;;;;;;;;;;11.80;99.90;;;;;;6178203;23;19916;-76
2023/10/24 11:33:44;;;;;;;;;;;11.90;99.90;;;;;;6181068;23;19922;-75
2023/10/24 11:36:10;;;;;;;;;;;11.80;99.90;;;;;;6178841;23;19994;-76
2023/10/24 11:38:35;;;;;;;;;;;11.90;99.90;;;;;;6179522;23;19923;-75
2023/10/24 11:41:01;;;;;;;;;;;11.90;99.90;;;;;;6181884;23;19916;-79
2023/10/24 11:43:29;;;;;;;;;;;12.00;99.90;;;;;;6179866;23;20233;-75
2023/10/24 11:45:55;;;;;;;;;;;12.00;99.90;;;;;;6176304;23;19963;-75
2023/10/24 11:48:21;;;;;;;;;;;12.00;99.90;;;;;;6179877;23;19920;-75
2023/10/24 11:50:46;;;;;;;;;;;12.00;99.90;;;;;;6179905;23;20023;-75
2023/10/24 11:53:19;;;;;;;;;;;12.00;99.90;;;;;;6178505;23;19923;-75
2023/10/24 11:55:44;;;;;;;;;;;12.00;99.90;;;;;;6180270;23;19959;-75
2023/10/24 11:58:11;;;;;;;;;;;12.00;99.90;;;;;;6180162;23;20351;-76
2023/10/24 12:00:40;;;;;;;;;;;12.10;99.90;;;;;;6178618;23;19983;-74
2023/10/24 12:03:06;;;;;;;;;;;12.00;99.90;;;;;;6180356;23;19944;-75
2023/10/24 12:05:32;;;;;;;;;;;12.00;99.90;;;;;;6180848;23;19931;-76
2023/10/24 12:08:01;;;;;;;;;;;12.00;99.90;;;;;;6179854;23;19940;-76
2023/10/24 12:10:27;;;;;;;;;;;12.00;99.90;;;;;;6181165;23;19951;-74
2023/10/24 12:13:03;;;;;;;;;;;12.10;99.90;;;;;;6153771;23;19932;-74
2023/10/24 12:15:30;;;;;;;;;;;12.00;99.90;;;;;;6179383;23;19928;-76
2023/10/24 12:17:59;;;;;;;;;;;12.00;99.90;;;;;;6177599;23;19915;-75
2023/10/24 12:20:25;;;;;;;;;;;12.00;99.90;;;;;;6181460;23;20039;-75
2023/10/24 12:22:50;;;;;;;;;;;12.00;99.90;;;;;;6155618;23;20364;-74
2023/10/24 12:25:17;;;;;;;;;;;11.90;99.90;;;;;;6181635;23;19920;-75
2023/10/24 12:27:46;;;;;;;;;;;12.00;99.90;;;;;;6181969;23;19956;-75
2023/10/24 12:30:12;;;;;;;;;;;11.90;99.90;;;;;;6178547;23;19998;-76
2023/10/24 12:32:38;;;;;;;;;;;12.00;99.90;;;;;;6182031;23;19939;-73
2023/10/24 12:35:06;;;;;;;;;;;12.00;99.90;;;;;;6179471;23;19941;-74
2023/10/24 12:37:32;;;;;;;;;;;11.90;99.90;;;;;;6155052;23;19974;-74
2023/10/24 12:39:58;;;;;;;;;;;12.00;99.90;;;;;;6179698;23;19940;-75